sensor_id;sensor_type;location;lat;lon;timestamp;P1;durP1;ratioP1;P2;durP2;ratioP2
16330;SDS011;8275;48.206;16.340;2023-10-08T00:01:29;4.03;;;2.88;;
16330;SDS011;8275;48.206;16.340;2023-10-08T00:04:01;10.15;;;3.30;;
16330;SDS011;8275;48.206;16.340;2023-10-08T00:06:31;8.07;;;2.90;;
16330;SDS011;8275;48.206;16.340;2023-10-08T00:09:00;5.30;;;3.38;;
16330;SDS011;8275;48.206;16.340;2023-10-08T00:11:33;4.15;;;2.92;;
16330;SDS011;8275;48.206;16.340;2023-10-08T00:14:03;3.45;;;3.10;;
16330;SDS011;8275;48.206;16.340;2023-10-08T00:16:36;5.65;;;3.67;;
16330;SDS011;8275;48.206;16.340;2023-10-08T00:19:07;8.70;;;3.53;;
16330;SDS011;8275;48.206;16.340;2023-10-08T00:21:39;6.47;;;4.00;;
16330;SDS011;8275;48.206;16.340;2023-10-08T00:24:11;3.67;;;3.00;;
16330;SDS011;8275;48.206;16.340;2023-10-08T00:26:40;8.75;;;2.88;;
16330;SDS011;8275;48.206;16.340;2023-10-08T00:29:09;6.25;;;2.95;;
16330;SDS011;8275;48.206;16.340;2023-10-08T00:31:44;4.45;;;3.22;;
16330;SDS011;8275;48.206;16.340;2023-10-08T00:34:15;5.65;;;3.20;;
16330;SDS011;8275;48.206;16.340;2023-10-08T00:36:46;7.70;;;3.20;;
16330;SDS011;8275;48.206;16.340;2023-10-08T00:39:16;5.45;;;3.00;;
16330;SDS011;8275;48.206;16.340;2023-10-08T00:41:50;7.88;;;3.10;;
16330;SDS011;8275;48.206;16.340;2023-10-08T00:44:25;2.97;;;2.65;;
16330;SDS011;8275;48.206;16.340;2023-10-08T00:46:57;6.75;;;3.08;;
16330;SDS011;8275;48.206;16.340;2023-10-08T00:49:29;4.85;;;2.67;;
16330;SDS011;8275;48.206;16.340;2023-10-08T00:52:14;7.32;;;3.08;;
16330;SDS011;8275;48.206;16.340;2023-10-08T00:55:04;6.68;;;2.65;;
16330;SDS011;8275;48.206;16.340;2023-10-08T00:57:47;5.07;;;3.33;;
16330;SDS011;8275;48.206;16.340;2023-10-08T01:00:20;6.88;;;3.20;;
16330;SDS011;8275;48.206;16.340;2023-10-08T01:02:49;2.85;;;2.60;;
16330;SDS011;8275;48.206;16.340;2023-10-08T01:05:29;6.18;;;3.53;;
16330;SDS011;8275;48.206;16.340;2023-10-08T01:08:12;3.95;;;3.17;;
16330;SDS011;8275;48.206;16.340;2023-10-08T01:10:48;5.55;;;3.47;;
16330;SDS011;8275;48.206;16.340;2023-10-08T01:13:30;5.20;;;2.75;;
16330;SDS011;8275;48.206;16.340;2023-10-08T01:16:09;3.42;;;2.85;;
16330;SDS011;8275;48.206;16.340;2023-10-08T01:18:38;7.07;;;3.08;;
16330;SDS011;8275;48.206;16.340;2023-10-08T01:21:15;3.97;;;2.95;;
16330;SDS011;8275;48.206;16.340;2023-10-08T01:24:02;4.63;;;3.03;;
16330;SDS011;8275;48.206;16.340;2023-10-08T01:26:32;5.60;;;3.45;;
16330;SDS011;8275;48.206;16.340;2023-10-08T01:29:08;6.15;;;3.15;;
16330;SDS011;8275;48.206;16.340;2023-10-08T01:31:46;4.95;;;3.10;;
16330;SDS011;8275;48.206;16.340;2023-10-08T01:34:16;3.58;;;2.75;;
16330;SDS011;8275;48.206;16.340;2023-10-08T01:36:46;4.03;;;2.75;;
16330;SDS011;8275;48.206;16.340;2023-10-08T01:39:16;6.68;;;3.50;;
16330;SDS011;8275;48.206;16.340;2023-10-08T01:41:45;4.28;;;3.30;;
16330;SDS011;8275;48.206;16.340;2023-10-08T01:44:14;5.25;;;2.60;;
16330;SDS011;8275;48.206;16.340;2023-10-08T01:46:43;8.00;;;3.38;;
16330;SDS011;8275;48.206;16.340;2023-10-08T01:49:16;4.65;;;3.00;;
16330;SDS011;8275;48.206;16.340;2023-10-08T01:51:49;4.75;;;3.47;;
16330;SDS011;8275;48.206;16.340;2023-10-08T01:54:21;4.82;;;3.38;;
16330;SDS011;8275;48.206;16.340;2023-10-08T01:56:52;9.00;;;3.47;;
16330;SDS011;8275;48.206;16.340;2023-10-08T01:59:21;3.28;;;2.60;;
16330;SDS011;8275;48.206;16.340;2023-10-08T02:01:50;4.80;;;2.88;;
16330;SDS011;8275;48.206;16.340;2023-10-08T02:04:22;6.55;;;3.35;;
16330;SDS011;8275;48.206;16.340;2023-10-08T02:06:52;4.38;;;2.90;;
16330;SDS011;8275;48.206;16.340;2023-10-08T02:09:21;3.67;;;2.65;;
16330;SDS011;8275;48.206;16.340;2023-10-08T02:11:52;5.03;;;4.00;;
16330;SDS011;8275;48.206;16.340;2023-10-08T02:14:21;4.80;;;3.15;;
16330;SDS011;8275;48.206;16.340;2023-10-08T02:16:50;3.95;;;3.20;;
16330;SDS011;8275;48.206;16.340;2023-10-08T02:19:23;3.08;;;2.70;;
16330;SDS011;8275;48.206;16.340;2023-10-08T02:21:55;2.88;;;2.60;;
16330;SDS011;8275;48.206;16.340;2023-10-08T02:24:26;3.53;;;2.42;;
16330;SDS011;8275;48.206;16.340;2023-10-08T02:26:56;5.00;;;3.72;;
16330;SDS011;8275;48.206;16.340;2023-10-08T02:29:27;4.60;;;2.30;;
16330;SDS011;8275;48.206;16.340;2023-10-08T02:31:57;3.83;;;2.50;;
16330;SDS011;8275;48.206;16.340;2023-10-08T02:34:26;6.07;;;3.40;;
16330;SDS011;8275;48.206;16.340;2023-10-08T02:36:57;6.60;;;3.00;;
16330;SDS011;8275;48.206;16.340;2023-10-08T02:39:27;4.85;;;3.13;;
16330;SDS011;8275;48.206;16.340;2023-10-08T02:41:57;4.53;;;3.38;;
16330;SDS011;8275;48.206;16.340;2023-10-08T02:44:26;3.40;;;3.08;;
16330;SDS011;8275;48.206;16.340;2023-10-08T02:46:55;5.45;;;2.88;;
16330;SDS011;8275;48.206;16.340;2023-10-08T02:49:24;5.82;;;2.85;;
16330;SDS011;8275;48.206;16.340;2023-10-08T02:51:56;4.50;;;2.85;;
16330;SDS011;8275;48.206;16.340;2023-10-08T02:54:26;3.08;;;2.60;;
16330;SDS011;8275;48.206;16.340;2023-10-08T02:57:02;7.88;;;3.22;;
16330;SDS011;8275;48.206;16.340;2023-10-08T02:59:40;4.78;;;3.17;;
16330;SDS011;8275;48.206;16.340;2023-10-08T03:02:11;7.40;;;3.40;;
16330;SDS011;8275;48.206;16.340;2023-10-08T03:04:45;5.10;;;2.80;;
16330;SDS011;8275;48.206;16.340;2023-10-08T03:07:17;5.53;;;3.03;;
16330;SDS011;8275;48.206;16.340;2023-10-08T03:10:00;3.95;;;2.72;;
16330;SDS011;8275;48.206;16.340;2023-10-08T03:12:33;3.22;;;2.92;;
16330;SDS011;8275;48.206;16.340;2023-10-08T03:15:02;4.90;;;2.75;;
16330;SDS011;8275;48.206;16.340;2023-10-08T03:17:40;5.25;;;2.70;;
16330;SDS011;8275;48.206;16.340;2023-10-08T03:20:16;3.20;;;2.63;;
16330;SDS011;8275;48.206;16.340;2023-10-08T03:23:05;7.65;;;3.42;;
16330;SDS011;8275;48.206;16.340;2023-10-08T03:25:41;5.35;;;3.08;;
16330;SDS011;8275;48.206;16.340;2023-10-08T03:28:12;4.35;;;2.70;;
16330;SDS011;8275;48.206;16.340;2023-10-08T03:30:43;3.22;;;2.50;;
16330;SDS011;8275;48.206;16.340;2023-10-08T03:33:17;13.35;;;3.35;;
16330;SDS011;8275;48.206;16.340;2023-10-08T03:35:51;7.50;;;2.83;;
16330;SDS011;8275;48.206;16.340;2023-10-08T03:38:22;4.20;;;2.30;;
16330;SDS011;8275;48.206;16.340;2023-10-08T03:41:07;10.52;;;4.20;;
16330;SDS011;8275;48.206;16.340;2023-10-08T03:43:42;5.25;;;3.10;;
16330;SDS011;8275;48.206;16.340;2023-10-08T03:46:19;7.70;;;3.63;;
16330;SDS011;8275;48.206;16.340;2023-10-08T03:48:50;6.13;;;3.75;;
16330;SDS011;8275;48.206;16.340;2023-10-08T03:51:18;8.18;;;4.00;;
16330;SDS011;8275;48.206;16.340;2023-10-08T03:53:47;9.15;;;2.67;;
16330;SDS011;8275;48.206;16.340;2023-10-08T03:56:27;4.72;;;3.03;;
16330;SDS011;8275;48.206;16.340;2023-10-08T03:58:58;4.43;;;2.97;;
16330;SDS011;8275;48.206;16.340;2023-10-08T04:01:30;6.68;;;3.65;;
16330;SDS011;8275;48.206;16.340;2023-10-08T04:04:00;3.83;;;3.03;;
16330;SDS011;8275;48.206;16.340;2023-10-08T04:06:28;4.60;;;3.17;;
16330;SDS011;8275;48.206;16.340;2023-10-08T04:09:04;5.20;;;3.30;;
16330;SDS011;8275;48.206;16.340;2023-10-08T04:11:48;5.28;;;3.13;;
16330;SDS011;8275;48.206;16.340;2023-10-08T04:14:24;3.40;;;2.88;;
16330;SDS011;8275;48.206;16.340;2023-10-08T04:16:54;5.45;;;3.00;;
16330;SDS011;8275;48.206;16.340;2023-10-08T04:19:22;4.78;;;3.08;;
16330;SDS011;8275;48.206;16.340;2023-10-08T04:21:53;7.57;;;3.13;;
16330;SDS011;8275;48.206;16.340;2023-10-08T04:24:23;4.18;;;3.15;;
16330;SDS011;8275;48.206;16.340;2023-10-08T04:26:57;7.68;;;3.50;;
16330;SDS011;8275;48.206;16.340;2023-10-08T04:29:25;3.78;;;2.65;;
16330;SDS011;8275;48.206;16.340;2023-10-08T04:31:59;5.20;;;2.97;;
16330;SDS011;8275;48.206;16.340;2023-10-08T04:34:35;6.80;;;3.13;;
16330;SDS011;8275;48.206;16.340;2023-10-08T04:37:04;5.93;;;2.83;;
16330;SDS011;8275;48.206;16.340;2023-10-08T04:39:39;4.35;;;2.80;;
16330;SDS011;8275;48.206;16.340;2023-10-08T04:42:15;5.15;;;3.15;;
16330;SDS011;8275;48.206;16.340;2023-10-08T04:44:53;4.10;;;3.13;;
16330;SDS011;8275;48.206;16.340;2023-10-08T04:47:22;6.30;;;3.10;;
16330;SDS011;8275;48.206;16.340;2023-10-08T04:50:00;4.18;;;3.20;;
16330;SDS011;8275;48.206;16.340;2023-10-08T04:52:33;4.45;;;3.30;;
16330;SDS011;8275;48.206;16.340;2023-10-08T04:55:12;3.35;;;3.03;;
16330;SDS011;8275;48.206;16.340;2023-10-08T04:57:48;6.32;;;3.13;;
16330;SDS011;8275;48.206;16.340;2023-10-08T05:00:16;3.85;;;2.95;;
16330;SDS011;8275;48.206;16.340;2023-10-08T05:03:06;4.32;;;3.05;;
16330;SDS011;8275;48.206;16.340;2023-10-08T05:05:41;6.18;;;3.10;;
16330;SDS011;8275;48.206;16.340;2023-10-08T05:08:32;7.35;;;3.45;;
16330;SDS011;8275;48.206;16.340;2023-10-08T05:11:13;4.93;;;2.55;;
16330;SDS011;8275;48.206;16.340;2023-10-08T05:13:52;8.00;;;3.50;;
16330;SDS011;8275;48.206;16.340;2023-10-08T05:16:32;6.43;;;3.33;;
16330;SDS011;8275;48.206;16.340;2023-10-08T05:19:09;5.20;;;3.17;;
16330;SDS011;8275;48.206;16.340;2023-10-08T05:22:15;4.97;;;2.70;;
16330;SDS011;8275;48.206;16.340;2023-10-08T05:24:48;4.30;;;2.92;;
16330;SDS011;8275;48.206;16.340;2023-10-08T05:27:31;4.03;;;3.38;;
16330;SDS011;8275;48.206;16.340;2023-10-08T05:30:25;7.25;;;3.10;;
16330;SDS011;8275;48.206;16.340;2023-10-08T05:33:05;5.50;;;3.00;;
16330;SDS011;8275;48.206;16.340;2023-10-08T05:35:39;4.15;;;2.75;;
16330;SDS011;8275;48.206;16.340;2023-10-08T05:38:21;5.80;;;3.17;;
16330;SDS011;8275;48.206;16.340;2023-10-08T05:41:04;7.65;;;2.83;;
16330;SDS011;8275;48.206;16.340;2023-10-08T05:43:54;4.55;;;2.92;;
16330;SDS011;8275;48.206;16.340;2023-10-08T05:46:43;5.82;;;2.95;;
16330;SDS011;8275;48.206;16.340;2023-10-08T05:49:33;5.57;;;3.42;;
16330;SDS011;8275;48.206;16.340;2023-10-08T05:52:21;6.20;;;2.95;;
16330;SDS011;8275;48.206;16.340;2023-10-08T05:55:07;4.50;;;3.58;;
16330;SDS011;8275;48.206;16.340;2023-10-08T05:57:42;5.45;;;2.80;;
16330;SDS011;8275;48.206;16.340;2023-10-08T06:00:29;5.10;;;2.85;;
16330;SDS011;8275;48.206;16.340;2023-10-08T06:03:13;7.30;;;3.40;;
16330;SDS011;8275;48.206;16.340;2023-10-08T06:06:03;7.13;;;3.78;;
16330;SDS011;8275;48.206;16.340;2023-10-08T06:09:04;5.05;;;3.35;;
16330;SDS011;8275;48.206;16.340;2023-10-08T06:11:47;6.13;;;3.40;;
16330;SDS011;8275;48.206;16.340;2023-10-08T06:14:37;6.57;;;2.08;;
16330;SDS011;8275;48.206;16.340;2023-10-08T06:17:19;4.47;;;3.28;;
16330;SDS011;8275;48.206;16.340;2023-10-08T06:20:26;9.10;;;3.28;;
16330;SDS011;8275;48.206;16.340;2023-10-08T06:22:55;4.13;;;2.75;;
16330;SDS011;8275;48.206;16.340;2023-10-08T06:25:30;4.63;;;3.35;;
16330;SDS011;8275;48.206;16.340;2023-10-08T06:27:58;8.35;;;4.05;;
16330;SDS011;8275;48.206;16.340;2023-10-08T06:30:29;6.00;;;3.38;;
16330;SDS011;8275;48.206;16.340;2023-10-08T06:33:01;5.57;;;3.08;;
16330;SDS011;8275;48.206;16.340;2023-10-08T06:35:32;4.35;;;2.88;;
16330;SDS011;8275;48.206;16.340;2023-10-08T06:38:02;5.88;;;3.33;;
16330;SDS011;8275;48.206;16.340;2023-10-08T06:40:36;6.28;;;2.85;;
16330;SDS011;8275;48.206;16.340;2023-10-08T06:43:11;7.05;;;4.03;;
16330;SDS011;8275;48.206;16.340;2023-10-08T06:45:41;7.70;;;3.65;;
16330;SDS011;8275;48.206;16.340;2023-10-08T06:48:11;9.50;;;3.03;;
16330;SDS011;8275;48.206;16.340;2023-10-08T06:50:46;3.85;;;3.03;;
16330;SDS011;8275;48.206;16.340;2023-10-08T06:53:16;8.57;;;3.55;;
16330;SDS011;8275;48.206;16.340;2023-10-08T06:55:45;5.25;;;3.38;;
16330;SDS011;8275;48.206;16.340;2023-10-08T06:58:21;5.07;;;3.47;;
16330;SDS011;8275;48.206;16.340;2023-10-08T07:00:50;4.97;;;4.13;;
16330;SDS011;8275;48.206;16.340;2023-10-08T07:03:21;9.43;;;4.43;;
16330;SDS011;8275;48.206;16.340;2023-10-08T07:05:53;6.93;;;3.65;;
16330;SDS011;8275;48.206;16.340;2023-10-08T07:08:25;6.13;;;3.72;;
16330;SDS011;8275;48.206;16.340;2023-10-08T07:10:58;5.78;;;3.55;;
16330;SDS011;8275;48.206;16.340;2023-10-08T07:13:33;5.20;;;2.95;;
16330;SDS011;8275;48.206;16.340;2023-10-08T07:16:03;6.20;;;3.38;;
16330;SDS011;8275;48.206;16.340;2023-10-08T07:18:38;6.40;;;4.10;;
16330;SDS011;8275;48.206;16.340;2023-10-08T07:21:11;8.68;;;3.47;;
16330;SDS011;8275;48.206;16.340;2023-10-08T07:23:39;4.22;;;3.55;;
16330;SDS011;8275;48.206;16.340;2023-10-08T07:26:24;4.10;;;3.17;;
16330;SDS011;8275;48.206;16.340;2023-10-08T07:29:03;7.68;;;3.13;;
16330;SDS011;8275;48.206;16.340;2023-10-08T07:31:35;8.98;;;3.80;;
16330;SDS011;8275;48.206;16.340;2023-10-08T07:34:08;7.55;;;2.75;;
16330;SDS011;8275;48.206;16.340;2023-10-08T07:36:54;5.53;;;3.38;;
16330;SDS011;8275;48.206;16.340;2023-10-08T07:39:22;5.63;;;3.38;;
16330;SDS011;8275;48.206;16.340;2023-10-08T07:42:02;6.90;;;3.10;;
16330;SDS011;8275;48.206;16.340;2023-10-08T07:44:34;6.03;;;3.83;;
16330;SDS011;8275;48.206;16.340;2023-10-08T07:47:05;7.82;;;3.70;;
16330;SDS011;8275;48.206;16.340;2023-10-08T07:49:36;4.78;;;2.83;;
16330;SDS011;8275;48.206;16.340;2023-10-08T07:52:07;8.32;;;3.90;;
16330;SDS011;8275;48.206;16.340;2023-10-08T07:54:35;13.70;;;3.65;;
16330;SDS011;8275;48.206;16.340;2023-10-08T07:57:03;5.50;;;3.30;;
16330;SDS011;8275;48.206;16.340;2023-10-08T07:59:39;8.82;;;3.67;;
16330;SDS011;8275;48.206;16.340;2023-10-08T08:02:14;5.93;;;3.53;;
16330;SDS011;8275;48.206;16.340;2023-10-08T08:04:50;7.07;;;3.90;;
16330;SDS011;8275;48.206;16.340;2023-10-08T08:07:21;9.07;;;3.83;;
16330;SDS011;8275;48.206;16.340;2023-10-08T08:09:51;6.05;;;3.05;;
16330;SDS011;8275;48.206;16.340;2023-10-08T08:12:25;7.32;;;3.80;;
16330;SDS011;8275;48.206;16.340;2023-10-08T08:14:59;18.27;;;4.25;;
16330;SDS011;8275;48.206;16.340;2023-10-08T08:17:30;8.02;;;4.70;;
16330;SDS011;8275;48.206;16.340;2023-10-08T08:19:59;6.25;;;3.60;;
16330;SDS011;8275;48.206;16.340;2023-10-08T08:22:45;4.93;;;3.83;;
16330;SDS011;8275;48.206;16.340;2023-10-08T08:25:16;5.88;;;3.90;;
16330;SDS011;8275;48.206;16.340;2023-10-08T08:28:00;5.30;;;3.60;;
16330;SDS011;8275;48.206;16.340;2023-10-08T08:30:32;6.93;;;3.85;;
16330;SDS011;8275;48.206;16.340;2023-10-08T08:33:03;12.82;;;4.03;;
16330;SDS011;8275;48.206;16.340;2023-10-08T08:35:37;4.25;;;3.08;;
16330;SDS011;8275;48.206;16.340;2023-10-08T08:38:07;6.80;;;3.97;;
16330;SDS011;8275;48.206;16.340;2023-10-08T08:40:36;8.07;;;3.70;;
16330;SDS011;8275;48.206;16.340;2023-10-08T08:43:06;4.80;;;3.42;;
16330;SDS011;8275;48.206;16.340;2023-10-08T08:45:38;9.77;;;3.80;;
16330;SDS011;8275;48.206;16.340;2023-10-08T08:48:07;7.28;;;3.78;;
16330;SDS011;8275;48.206;16.340;2023-10-08T08:50:36;4.75;;;3.80;;
16330;SDS011;8275;48.206;16.340;2023-10-08T08:53:07;7.55;;;3.90;;
16330;SDS011;8275;48.206;16.340;2023-10-08T08:55:36;5.18;;;3.38;;
16330;SDS011;8275;48.206;16.340;2023-10-08T08:58:06;7.50;;;3.80;;
16330;SDS011;8275;48.206;16.340;2023-10-08T09:00:37;4.53;;;3.47;;
16330;SDS011;8275;48.206;16.340;2023-10-08T09:03:08;4.75;;;3.15;;
16330;SDS011;8275;48.206;16.340;2023-10-08T09:05:39;24.52;;;3.78;;
16330;SDS011;8275;48.206;16.340;2023-10-08T09:08:10;4.07;;;2.55;;
16330;SDS011;8275;48.206;16.340;2023-10-08T09:10:38;13.00;;;2.35;;
16330;SDS011;8275;48.206;16.340;2023-10-08T09:13:19;5.20;;;1.92;;
16330;SDS011;8275;48.206;16.340;2023-10-08T09:15:49;6.05;;;1.50;;
16330;SDS011;8275;48.206;16.340;2023-10-08T09:18:22;3.17;;;2.28;;
16330;SDS011;8275;48.206;16.340;2023-10-08T09:20:54;13.00;;;1.80;;
16330;SDS011;8275;48.206;16.340;2023-10-08T09:23:24;3.83;;;1.17;;
16330;SDS011;8275;48.206;16.340;2023-10-08T09:25:52;2.47;;;1.77;;
16330;SDS011;8275;48.206;16.340;2023-10-08T09:28:30;2.78;;;1.38;;
16330;SDS011;8275;48.206;16.340;2023-10-08T09:31:01;1.40;;;0.73;;
16330;SDS011;8275;48.206;16.340;2023-10-08T09:33:31;2.88;;;0.70;;
16330;SDS011;8275;48.206;16.340;2023-10-08T09:36:00;1.00;;;0.60;;
16330;SDS011;8275;48.206;16.340;2023-10-08T09:38:35;3.20;;;1.05;;
16330;SDS011;8275;48.206;16.340;2023-10-08T09:41:04;1.70;;;0.47;;
16330;SDS011;8275;48.206;16.340;2023-10-08T09:43:35;1.00;;;0.90;;
16330;SDS011;8275;48.206;16.340;2023-10-08T09:46:08;1.15;;;0.80;;
16330;SDS011;8275;48.206;16.340;2023-10-08T09:48:41;1.25;;;0.40;;
16330;SDS011;8275;48.206;16.340;2023-10-08T09:51:15;1.75;;;0.70;;
16330;SDS011;8275;48.206;16.340;2023-10-08T09:53:51;1.17;;;0.98;;
16330;SDS011;8275;48.206;16.340;2023-10-08T09:56:31;1.73;;;0.85;;
16330;SDS011;8275;48.206;16.340;2023-10-08T09:59:01;1.27;;;0.40;;
16330;SDS011;8275;48.206;16.340;2023-10-08T10:01:29;0.65;;;0.65;;
16330;SDS011;8275;48.206;16.340;2023-10-08T10:03:59;1.15;;;0.55;;
16330;SDS011;8275;48.206;16.340;2023-10-08T10:06:28;1.25;;;0.40;;
16330;SDS011;8275;48.206;16.340;2023-10-08T10:08:59;0.52;;;0.30;;
16330;SDS011;8275;48.206;16.340;2023-10-08T10:11:30;1.05;;;0.30;;
16330;SDS011;8275;48.206;16.340;2023-10-08T10:14:00;0.57;;;0.45;;
16330;SDS011;8275;48.206;16.340;2023-10-08T10:16:33;1.10;;;0.52;;
16330;SDS011;8275;48.206;16.340;2023-10-08T10:19:06;0.40;;;0.40;;
16330;SDS011;8275;48.206;16.340;2023-10-08T10:21:43;0.57;;;0.57;;
16330;SDS011;8275;48.206;16.340;2023-10-08T10:24:23;0.50;;;0.50;;
16330;SDS011;8275;48.206;16.340;2023-10-08T10:27:14;0.50;;;0.40;;
16330;SDS011;8275;48.206;16.340;2023-10-08T10:29:44;0.82;;;0.80;;
16330;SDS011;8275;48.206;16.340;2023-10-08T10:32:14;0.40;;;0.40;;
16330;SDS011;8275;48.206;16.340;2023-10-08T10:34:45;0.75;;;0.50;;
16330;SDS011;8275;48.206;16.340;2023-10-08T10:37:18;0.35;;;0.35;;
16330;SDS011;8275;48.206;16.340;2023-10-08T10:39:54;1.38;;;0.50;;
16330;SDS011;8275;48.206;16.340;2023-10-08T10:42:26;0.88;;;0.40;;
16330;SDS011;8275;48.206;16.340;2023-10-08T10:44:55;0.52;;;0.52;;
16330;SDS011;8275;48.206;16.340;2023-10-08T10:47:25;0.40;;;0.40;;
16330;SDS011;8275;48.206;16.340;2023-10-08T10:49:54;0.73;;;0.45;;
16330;SDS011;8275;48.206;16.340;2023-10-08T10:52:43;0.85;;;0.57;;
16330;SDS011;8275;48.206;16.340;2023-10-08T10:55:21;0.40;;;0.40;;
16330;SDS011;8275;48.206;16.340;2023-10-08T10:57:58;3.70;;;1.25;;
16330;SDS011;8275;48.206;16.340;2023-10-08T11:00:41;0.40;;;0.40;;
16330;SDS011;8275;48.206;16.340;2023-10-08T11:03:23;1.00;;;0.90;;
16330;SDS011;8275;48.206;16.340;2023-10-08T11:05:53;1.30;;;0.35;;
16330;SDS011;8275;48.206;16.340;2023-10-08T11:08:32;0.90;;;0.65;;
16330;SDS011;8275;48.206;16.340;2023-10-08T11:11:05;1.00;;;0.50;;
16330;SDS011;8275;48.206;16.340;2023-10-08T11:13:36;1.13;;;0.40;;
16330;SDS011;8275;48.206;16.340;2023-10-08T11:16:06;1.40;;;0.50;;
16330;SDS011;8275;48.206;16.340;2023-10-08T11:18:43;3.03;;;0.82;;
16330;SDS011;8275;48.206;16.340;2023-10-08T11:21:17;0.35;;;0.35;;
16330;SDS011;8275;48.206;16.340;2023-10-08T11:23:51;2.00;;;1.05;;
16330;SDS011;8275;48.206;16.340;2023-10-08T11:26:23;1.85;;;0.65;;
16330;SDS011;8275;48.206;16.340;2023-10-08T11:29:01;1.50;;;0.60;;
16330;SDS011;8275;48.206;16.340;2023-10-08T11:31:31;1.42;;;0.80;;
16330;SDS011;8275;48.206;16.340;2023-10-08T11:34:02;0.43;;;0.43;;
16330;SDS011;8275;48.206;16.340;2023-10-08T11:36:36;0.82;;;0.82;;
16330;SDS011;8275;48.206;16.340;2023-10-08T11:39:16;1.83;;;0.95;;
16330;SDS011;8275;48.206;16.340;2023-10-08T11:41:59;1.17;;;0.80;;
16330;SDS011;8275;48.206;16.340;2023-10-08T11:44:33;0.85;;;0.40;;
16330;SDS011;8275;48.206;16.340;2023-10-08T11:47:04;1.52;;;0.90;;
16330;SDS011;8275;48.206;16.340;2023-10-08T11:49:39;1.10;;;0.88;;
16330;SDS011;8275;48.206;16.340;2023-10-08T11:52:14;1.13;;;0.90;;
16330;SDS011;8275;48.206;16.340;2023-10-08T11:54:46;1.15;;;0.85;;
16330;SDS011;8275;48.206;16.340;2023-10-08T11:57:16;2.50;;;1.17;;
16330;SDS011;8275;48.206;16.340;2023-10-08T11:59:49;0.82;;;0.68;;
16330;SDS011;8275;48.206;16.340;2023-10-08T12:02:21;1.35;;;0.85;;
16330;SDS011;8275;48.206;16.340;2023-10-08T12:04:50;1.33;;;0.63;;
16330;SDS011;8275;48.206;16.340;2023-10-08T12:07:19;0.55;;;0.55;;
16330;SDS011;8275;48.206;16.340;2023-10-08T12:09:54;1.30;;;1.20;;
16330;SDS011;8275;48.206;16.340;2023-10-08T12:12:24;1.10;;;1.00;;
16330;SDS011;8275;48.206;16.340;2023-10-08T12:14:54;0.98;;;0.95;;
16330;SDS011;8275;48.206;16.340;2023-10-08T12:17:23;3.47;;;0.93;;
16330;SDS011;8275;48.206;16.340;2023-10-08T12:20:05;1.50;;;1.15;;
16330;SDS011;8275;48.206;16.340;2023-10-08T12:22:50;1.90;;;1.27;;
16330;SDS011;8275;48.206;16.340;2023-10-08T12:25:19;1.02;;;0.65;;
16330;SDS011;8275;48.206;16.340;2023-10-08T12:27:50;1.02;;;0.95;;
16330;SDS011;8275;48.206;16.340;2023-10-08T12:30:19;1.00;;;1.00;;
16330;SDS011;8275;48.206;16.340;2023-10-08T12:32:58;1.88;;;1.17;;
16330;SDS011;8275;48.206;16.340;2023-10-08T12:35:27;1.10;;;0.98;;
16330;SDS011;8275;48.206;16.340;2023-10-08T12:37:56;1.33;;;1.23;;
16330;SDS011;8275;48.206;16.340;2023-10-08T12:40:25;1.52;;;1.02;;
16330;SDS011;8275;48.206;16.340;2023-10-08T12:43:10;0.70;;;0.68;;
16330;SDS011;8275;48.206;16.340;2023-10-08T12:45:40;0.82;;;0.82;;
16330;SDS011;8275;48.206;16.340;2023-10-08T12:48:11;1.85;;;1.23;;
16330;SDS011;8275;48.206;16.340;2023-10-08T12:50:41;1.00;;;0.90;;
16330;SDS011;8275;48.206;16.340;2023-10-08T12:53:10;1.08;;;0.93;;
16330;SDS011;8275;48.206;16.340;2023-10-08T12:55:42;1.33;;;1.00;;
16330;SDS011;8275;48.206;16.340;2023-10-08T12:58:14;1.08;;;0.98;;
16330;SDS011;8275;48.206;16.340;2023-10-08T13:00:43;0.90;;;0.90;;
16330;SDS011;8275;48.206;16.340;2023-10-08T13:03:16;1.42;;;0.93;;
16330;SDS011;8275;48.206;16.340;2023-10-08T13:05:50;1.15;;;0.93;;
16330;SDS011;8275;48.206;16.340;2023-10-08T13:08:21;1.08;;;1.02;;
16330;SDS011;8275;48.206;16.340;2023-10-08T13:10:54;1.20;;;1.10;;
16330;SDS011;8275;48.206;16.340;2023-10-08T13:13:28;1.60;;;1.50;;
16330;SDS011;8275;48.206;16.340;2023-10-08T13:15:59;1.83;;;1.20;;
16330;SDS011;8275;48.206;16.340;2023-10-08T13:18:34;1.33;;;1.23;;
16330;SDS011;8275;48.206;16.340;2023-10-08T13:21:04;2.42;;;2.15;;
16330;SDS011;8275;48.206;16.340;2023-10-08T13:23:35;4.35;;;2.10;;
16330;SDS011;8275;48.206;16.340;2023-10-08T13:26:06;1.60;;;1.50;;
16330;SDS011;8275;48.206;16.340;2023-10-08T13:28:38;2.35;;;1.40;;
16330;SDS011;8275;48.206;16.340;2023-10-08T13:31:08;1.33;;;1.23;;
16330;SDS011;8275;48.206;16.340;2023-10-08T13:33:40;1.80;;;1.50;;
16330;SDS011;8275;48.206;16.340;2023-10-08T13:36:16;6.57;;;1.88;;
16330;SDS011;8275;48.206;16.340;2023-10-08T13:38:46;3.55;;;1.20;;
16330;SDS011;8275;48.206;16.340;2023-10-08T13:41:16;2.10;;;1.33;;
16330;SDS011;8275;48.206;16.340;2023-10-08T13:43:48;1.50;;;1.40;;
16330;SDS011;8275;48.206;16.340;2023-10-08T13:46:19;2.75;;;1.92;;
16330;SDS011;8275;48.206;16.340;2023-10-08T13:48:50;2.28;;;1.85;;
16330;SDS011;8275;48.206;16.340;2023-10-08T13:51:21;3.22;;;2.28;;
16330;SDS011;8275;48.206;16.340;2023-10-08T13:53:53;3.22;;;2.20;;
16330;SDS011;8275;48.206;16.340;2023-10-08T13:56:27;4.30;;;2.25;;
16330;SDS011;8275;48.206;16.340;2023-10-08T13:59:00;3.67;;;1.85;;
16330;SDS011;8275;48.206;16.340;2023-10-08T14:01:40;3.13;;;1.85;;
16330;SDS011;8275;48.206;16.340;2023-10-08T14:04:13;3.15;;;1.60;;
16330;SDS011;8275;48.206;16.340;2023-10-08T14:06:47;1.60;;;1.23;;
16330;SDS011;8275;48.206;16.340;2023-10-08T14:09:19;1.90;;;1.65;;
16330;SDS011;8275;48.206;16.340;2023-10-08T14:11:59;1.48;;;1.25;;
16330;SDS011;8275;48.206;16.340;2023-10-08T14:14:31;2.47;;;2.25;;
16330;SDS011;8275;48.206;16.340;2023-10-08T14:17:02;2.33;;;2.00;;
16330;SDS011;8275;48.206;16.340;2023-10-08T14:19:35;2.42;;;1.85;;
16330;SDS011;8275;48.206;16.340;2023-10-08T14:22:13;3.92;;;2.92;;
16330;SDS011;8275;48.206;16.340;2023-10-08T14:24:43;3.38;;;2.22;;
16330;SDS011;8275;48.206;16.340;2023-10-08T14:27:13;3.13;;;2.78;;
16330;SDS011;8275;48.206;16.340;2023-10-08T14:29:47;2.28;;;1.88;;
16330;SDS011;8275;48.206;16.340;2023-10-08T14:32:19;2.78;;;1.80;;
16330;SDS011;8275;48.206;16.340;2023-10-08T14:34:51;1.73;;;1.45;;
16330;SDS011;8275;48.206;16.340;2023-10-08T14:37:38;3.03;;;2.00;;
16330;SDS011;8275;48.206;16.340;2023-10-08T14:40:25;2.45;;;1.90;;
16330;SDS011;8275;48.206;16.340;2023-10-08T14:43:12;3.33;;;2.30;;
16330;SDS011;8275;48.206;16.340;2023-10-08T14:45:48;3.58;;;2.28;;
16330;SDS011;8275;48.206;16.340;2023-10-08T14:48:20;2.17;;;1.70;;
16330;SDS011;8275;48.206;16.340;2023-10-08T14:50:50;3.55;;;2.33;;
16330;SDS011;8275;48.206;16.340;2023-10-08T14:53:21;4.60;;;2.50;;
16330;SDS011;8275;48.206;16.340;2023-10-08T14:55:53;2.25;;;2.03;;
16330;SDS011;8275;48.206;16.340;2023-10-08T14:58:24;4.07;;;3.50;;
16330;SDS011;8275;48.206;16.340;2023-10-08T15:00:57;2.42;;;2.22;;
16330;SDS011;8275;48.206;16.340;2023-10-08T15:03:28;3.90;;;2.80;;
16330;SDS011;8275;48.206;16.340;2023-10-08T15:05:59;3.58;;;1.98;;
16330;SDS011;8275;48.206;16.340;2023-10-08T15:08:30;3.00;;;2.50;;
16330;SDS011;8275;48.206;16.340;2023-10-08T15:11:00;5.28;;;2.17;;
16330;SDS011;8275;48.206;16.340;2023-10-08T15:13:33;2.05;;;1.92;;
16330;SDS011;8275;48.206;16.340;2023-10-08T15:16:07;2.65;;;2.08;;
16330;SDS011;8275;48.206;16.340;2023-10-08T15:18:37;3.25;;;2.28;;
16330;SDS011;8275;48.206;16.340;2023-10-08T15:21:10;3.25;;;2.70;;
16330;SDS011;8275;48.206;16.340;2023-10-08T15:23:40;6.07;;;2.05;;
16330;SDS011;8275;48.206;16.340;2023-10-08T15:26:09;1.92;;;1.80;;
16330;SDS011;8275;48.206;16.340;2023-10-08T15:28:40;4.47;;;3.00;;